Time;durP1;ratioP1;P1;durP2;ratioP2;P2;SDS_P1;SDS_P2;PMS_P1;PMS_P2;Temp;Humidity;BMP_temperature;BMP_pressure;BME280_temperature;BME280_humidity;BME280_pressure;Samples;Min_cycle;Max_cycle;Signal;HPM_P1;HPM_P2
2021/12/14 00:02:16;;;;;;;;;;;;;;;-3.74;100.00;101398.84;5601846;31;33778;-82
2021/12/14 00:05:20;;;;;;;;;;;;;;;-3.76;100.00;101402.34;5594881;31;33789;-82
2021/12/14 00:08:25;;;;;;;;;;;;;;;-3.77;100.00;101396.28;5593360;31;33629;-83
2021/12/14 00:11:56;;;;;;;;;;;;;;;-3.80;100.00;101401.53;5594364;31;34855;-82
2021/12/14 00:15:05;;;;;;;;;;;;;;;-3.85;100.00;101405.06;5595019;31;33163;-82
2021/12/14 00:18:10;;;;;;;;;;;;;;;-3.83;100.00;101409.31;5595056;31;33761;-82
2021/12/14 00:21:19;;;;;;;;;;;;;;;-3.82;100.00;101408.44;5597491;31;34043;-82
2021/12/14 00:24:26;;;;;;;;;;;;;;;-3.88;100.00;101408.53;5596189;31;33299;-82
2021/12/14 00:27:28;;;;;;;;;;;;;;;-3.91;100.00;101408.59;5597189;31;33851;-82
2021/12/14 00:30:33;;;;;;;;;;;;;;;-3.93;100.00;101411.19;5596295;31;33787;-82
2021/12/14 00:33:36;;;;;;;;;;;;;;;-3.90;100.00;101405.12;5596474;31;33610;-82
2021/12/14 00:36:39;;;;;;;;;;;;;;;-3.92;100.00;101402.53;5596259;31;33787;-82
2021/12/14 00:39:47;;;;;;;;;;;;;;;-3.98;100.00;101414.69;5596964;31;33673;-82
2021/12/14 00:42:50;;;;;;;;;;;;;;;-4.03;100.00;101405.28;5598334;31;33381;-82
2021/12/14 00:45:55;;;;;;;;;;;;;;;-4.08;100.00;101411.41;5597302;31;36258;-82
2021/12/14 00:48:58;;;;;;;;;;;;;;;-4.07;100.00;101413.94;5596671;31;33176;-82
2021/12/14 00:52:01;;;;;;;;;;;;;;;-4.07;100.00;101419.13;5596879;31;33809;-82
2021/12/14 00:55:06;;;;;;;;;;;;;;;-4.10;100.00;101423.47;5598394;31;33842;-82
2021/12/14 00:58:12;;;;;;;;;;;;;;;-4.14;100.00;101432.12;5596288;31;34135;-82
2021/12/14 01:01:19;;;;;;;;;;;;;;;-4.12;100.00;101433.84;5596681;31;33614;-82
2021/12/14 01:04:26;;;;;;;;;;;;;;;-4.20;100.00;101430.50;5596875;31;33140;-82
2021/12/14 01:07:30;;;;;;;;;;;;;;;-4.20;100.00;101428.78;5595794;31;33413;-82
2021/12/14 01:10:36;;;;;;;;;;;;;;;-4.24;100.00;101434.00;5596451;31;34117;-82
2021/12/14 01:13:48;;;;;;;;;;;;;;;-4.30;100.00;101432.34;5595996;31;33649;-82
2021/12/14 01:17:06;;;;;;;;;;;;;;;-4.24;100.00;101424.50;5596023;31;33866;-82
2021/12/14 01:20:15;;;;;;;;;;;;;;;-4.19;100.00;101424.44;5595742;31;33545;-82
2021/12/14 01:23:29;;;;;;;;;;;;;;;-4.27;100.00;101421.09;5595367;31;33430;-82
2021/12/14 01:26:39;;;;;;;;;;;;;;;-4.25;100.00;101421.94;5595386;31;34073;-82
2021/12/14 01:29:44;;;;;;;;;;;;;;;-4.26;100.00;101423.66;5596294;31;33382;-82
2021/12/14 01:32:52;;;;;;;;;;;;;;;-4.35;100.00;101419.47;5595824;31;33529;-82
2021/12/14 01:35:56;;;;;;;;;;;;;;;-4.35;100.00;101424.66;5595555;31;32968;-82
2021/12/14 01:40:05;;;;;;;;;;;;;;;-4.38;100.00;101419.50;5595955;31;33280;-82
2021/12/14 01:42:49;;;;;;;;;;;;;;;-4.44;100.00;101413.56;5592589;31;33567;-82
2021/12/14 01:45:53;;;;;;;;;;;;;;;-4.55;100.00;101426.59;5595783;31;33521;-82
2021/12/14 01:49:04;;;;;;;;;;;;;;;-4.61;100.00;101427.50;5595204;31;33663;-82
2021/12/14 01:52:22;;;;;;;;;;;;;;;-4.61;100.00;101424.09;5595080;31;33764;-82
2021/12/14 01:55:35;;;;;;;;;;;;;;;-4.62;100.00;101414.62;5597372;31;33391;-82
2021/12/14 01:58:43;;;;;;;;;;;;;;;-4.68;100.00;101423.28;5595351;31;33073;-82
2021/12/14 02:01:54;;;;;;;;;;;;;;;-4.58;100.00;101421.47;5595363;31;33873;-82
2021/12/14 02:04:59;;;;;;;;;;;;;;;-4.49;100.00;101421.38;5595745;31;33656;-82
2021/12/14 02:08:04;;;;;;;;;;;;;;;-4.54;100.00;101423.13;5595667;31;33437;-82
2021/12/14 02:11:09;;;;;;;;;;;;;;;-4.62;100.00;101427.53;5596320;31;33486;-82
2021/12/14 02:14:11;;;;;;;;;;;;;;;-4.68;100.00;101416.41;5596996;31;32399;-82
2021/12/14 02:17:18;;;;;;;;;;;;;;;-4.69;100.00;101419.00;5597536;31;33892;-82
2021/12/14 02:20:24;;;;;;;;;;;;;;;-4.70;100.00;101425.03;5601675;31;33744;-82
2021/12/14 02:23:28;;;;;;;;;;;;;;;-4.67;100.00;101423.25;5601284;31;34659;-82
2021/12/14 02:26:33;;;;;;;;;;;;;;;-4.62;100.00;101415.50;5598037;31;32589;-82
2021/12/14 02:29:42;;;;;;;;;;;;;;;-4.65;100.00;101418.94;5600962;31;34225;-82
2021/12/14 02:32:44;;;;;;;;;;;;;;;-4.59;100.00;101418.03;5601307;31;34883;-83
2021/12/14 02:35:49;;;;;;;;;;;;;;;-4.62;100.00;101419.78;5604046;31;36080;-82
2021/12/14 02:39:06;;;;;;;;;;;;;;;-4.70;100.00;101425.91;5600668;31;34827;-82
2021/12/14 02:42:11;;;;;;;;;;;;;;;-4.67;100.00;101428.44;5594312;31;33590;-82
2021/12/14 02:45:14;;;;;;;;;;;;;;;-4.71;100.00;101421.59;5595456;31;33551;-82
2021/12/14 02:48:19;;;;;;;;;;;;;;;-4.78;100.00;101419.94;5595859;31;33484;-83
2021/12/14 02:51:27;;;;;;;;;;;;;;;-4.72;100.00;101425.06;5595356;31;33423;-82
2021/12/14 02:54:32;;;;;;;;;;;;;;;-4.72;100.00;101424.19;5596043;31;34332;-82
2021/12/14 02:57:37;;;;;;;;;;;;;;;-4.65;100.00;101424.09;5594469;31;33419;-82
2021/12/14 03:00:42;;;;;;;;;;;;;;;-4.41;100.00;101422.12;5595070;31;33553;-82
2021/12/14 03:03:45;;;;;;;;;;;;;;;-4.36;100.00;101417.78;5594544;31;32734;-82
2021/12/14 03:06:53;;;;;;;;;;;;;;;-4.48;100.00;101410.16;5595223;31;34135;-82
2021/12/14 03:10:05;;;;;;;;;;;;;;;-4.58;100.00;101400.81;5595295;31;33920;-82
2021/12/14 03:13:11;;;;;;;;;;;;;;;-4.66;100.00;101419.81;5594556;31;34193;-82
2021/12/14 03:16:25;;;;;;;;;;;;;;;-4.70;100.00;101425.91;5594846;31;34296;-82
2021/12/14 03:19:28;;;;;;;;;;;;;;;-4.73;100.00;101420.75;5595372;31;33557;-82
2021/12/14 03:22:35;;;;;;;;;;;;;;;-4.85;100.00;101413.13;5594448;31;33738;-82
2021/12/14 03:25:41;;;;;;;;;;;;;;;-4.90;100.00;101422.66;5594323;31;33846;-82
2021/12/14 03:28:49;;;;;;;;;;;;;;;-4.94;100.00;101423.56;5594222;31;34262;-82
2021/12/14 03:31:55;;;;;;;;;;;;;;;-4.95;100.00;101422.69;5594665;31;32934;-82
2021/12/14 03:34:58;;;;;;;;;;;;;;;-4.95;100.00;101412.34;5594856;31;31978;-82
2021/12/14 03:38:21;;;;;;;;;;;;;;;-5.00;100.00;101409.81;5594730;31;33610;-82
2021/12/14 03:41:29;;;;;;;;;;;;;;;-4.93;100.00;101418.38;5595159;31;33864;-82
2021/12/14 03:44:42;;;;;;;;;;;;;;;-4.94;100.00;101418.38;5593893;31;34689;-82
2021/12/14 03:47:52;;;;;;;;;;;;;;;-5.00;100.00;101420.16;5594402;31;33827;-82
2021/12/14 03:50:55;;;;;;;;;;;;;;;-5.07;100.00;101408.19;5594643;31;33515;-82
2021/12/14 03:53:58;;;;;;;;;;;;;;;-5.10;100.00;101412.53;5595485;31;33130;-82
2021/12/14 03:57:01;;;;;;;;;;;;;;;-5.06;100.00;101409.87;5600470;31;33430;-82
2021/12/14 04:00:05;;;;;;;;;;;;;;;-5.00;100.00;101414.97;5597540;31;33291;-82
2021/12/14 04:03:11;;;;;;;;;;;;;;;-4.81;100.00;101414.81;5598143;31;33627;-82
2021/12/14 04:06:16;;;;;;;;;;;;;;;-4.90;100.00;101414.91;5596868;31;33741;-82
2021/12/14 04:09:21;;;;;;;;;;;;;;;-4.95;100.00;101417.53;5596697;31;33264;-82
2021/12/14 04:12:25;;;;;;;;;;;;;;;-4.88;100.00;101423.47;5596379;31;34378;-82
2021/12/14 04:15:30;;;;;;;;;;;;;;;-4.84;100.00;101420.84;5598016;31;34171;-82
2021/12/14 04:18:35;;;;;;;;;;;;;;;-4.85;100.00;101424.34;5596778;31;33490;-83
2021/12/14 04:21:40;;;;;;;;;;;;;;;-4.84;100.00;101422.59;5596760;31;33759;-82
2021/12/14 04:24:46;;;;;;;;;;;;;;;-4.83;100.00;101427.72;5596317;31;32710;-82
2021/12/14 04:27:53;;;;;;;;;;;;;;;-4.85;100.00;101423.47;5596516;31;34809;-82
2021/12/14 04:30:59;;;;;;;;;;;;;;;-4.96;100.00;101411.50;5596231;31;33571;-82
2021/12/14 04:34:02;;;;;;;;;;;;;;;-5.01;100.00;101412.44;5596996;31;33471;-82
2021/12/14 04:37:05;;;;;;;;;;;;;;;-5.07;100.00;101413.34;5596629;31;33761;-83
2021/12/14 04:53:53;;;;;;;;;;;;;;;-4.98;100.00;101433.06;5596742;31;32988;-83
2021/12/14 04:56:57;;;;;;;;;;;;;;;-5.07;100.00;101438.31;5595506;31;33354;-83
2021/12/14 05:00:13;;;;;;;;;;;;;;;-5.08;100.00;101442.59;5597381;31;33543;-82
2021/12/14 05:03:28;;;;;;;;;;;;;;;-4.99;100.00;101433.91;5598539;31;34197;-82
2021/12/14 05:06:44;;;;;;;;;;;;;;;-4.97;100.00;101440.78;5601134;31;33610;-83
2021/12/14 05:09:50;;;;;;;;;;;;;;;-4.86;100.00;101432.06;5599351;31;34690;-82
2021/12/14 05:12:54;;;;;;;;;;;;;;;-4.87;100.00;101435.53;5596537;31;33674;-82
2021/12/14 05:15:58;;;;;;;;;;;;;;;-4.89;100.00;101432.09;5597701;31;33127;-83
2021/12/14 05:19:04;;;;;;;;;;;;;;;-4.93;100.00;101438.19;5595820;31;33382;-83
2021/12/14 05:22:10;;;;;;;;;;;;;;;-4.96;100.00;101437.31;5594751;31;33722;-83
2021/12/14 05:25:20;;;;;;;;;;;;;;;-4.82;100.00;101444.09;5594931;31;33612;-82
2021/12/14 05:28:24;;;;;;;;;;;;;;;-4.97;100.00;101450.25;5596575;31;33481;-83
2021/12/14 05:31:28;;;;;;;;;;;;;;;-5.06;100.00;101440.87;5595845;31;34053;-83
2021/12/14 05:34:36;;;;;;;;;;;;;;;-4.97;100.00;101443.34;5596359;31;34030;-83
2021/12/14 05:37:46;;;;;;;;;;;;;;;-5.00;100.00;101453.69;5596945;31;33351;-83
2021/12/14 05:43:57;;;;;;;;;;;;;;;-5.19;100.00;101457.31;5596233;31;34102;-82
2021/12/14 05:47:05;;;;;;;;;;;;;;;-5.03;100.00;101471.81;5597768;31;33218;-83
2021/12/14 05:50:12;;;;;;;;;;;;;;;-5.09;100.00;101466.69;5596087;31;33789;-83
2021/12/14 05:53:28;;;;;;;;;;;;;;;-5.06;100.00;101460.63;5595752;31;33889;-83
2021/12/14 05:56:31;;;;;;;;;;;;;;;-5.08;100.00;101470.97;5595726;31;34648;-82
2021/12/14 05:59:35;;;;;;;;;;;;;;;-5.16;100.00;101476.19;5596291;31;33796;-82
2021/12/14 06:02:38;;;;;;;;;;;;;;;-5.20;100.00;101473.66;5596602;31;34204;-83
2021/12/14 06:05:42;;;;;;;;;;;;;;;-5.29;100.00;101475.44;5595063;31;33907;-83
2021/12/14 06:08:45;;;;;;;;;;;;;;;-5.47;100.00;101471.25;5595555;31;33754;-83
2021/12/14 06:11:53;;;;;;;;;;;;;;;-5.52;100.00;101475.62;5596129;31;33838;-83
2021/12/14 06:14:59;;;;;;;;;;;;;;;-5.54;100.00;101479.03;5594184;31;33512;-83
2021/12/14 06:18:04;;;;;;;;;;;;;;;-5.50;100.00;101465.28;5596318;31;34764;-84
2021/12/14 06:21:09;;;;;;;;;;;;;;;-5.62;100.00;101472.22;5596199;31;33329;-83
2021/12/14 06:24:12;;;;;;;;;;;;;;;-5.61;100.00;101476.53;5594957;31;33799;-83
2021/12/14 06:27:19;;;;;;;;;;;;;;;-5.63;100.00;101480.81;5594878;31;33266;-83
2021/12/14 06:30:25;;;;;;;;;;;;;;;-5.66;100.00;101496.31;5596445;31;33827;-83
2021/12/14 06:33:33;;;;;;;;;;;;;;;-5.73;100.00;101489.47;5595226;31;34023;-84
2021/12/14 06:37:03;;;;;;;;;;;;;;;-5.73;100.00;101486.91;5596640;31;34150;-83
2021/12/14 06:40:16;;;;;;;;;;;;;;;-5.76;100.00;101484.31;5599510;31;34001;-83
2021/12/14 06:43:23;;;;;;;;;;;;;;;-5.77;100.00;101487.75;5596599;31;34759;-84
2021/12/14 06:46:30;;;;;;;;;;;;;;;-5.74;100.00;101485.19;5595200;31;33600;-83
2021/12/14 06:49:33;;;;;;;;;;;;;;;-5.69;100.00;101488.59;5595508;31;33516;-83
2021/12/14 06:52:37;;;;;;;;;;;;;;;-5.70;100.00;101494.63;5595129;31;34174;-83
2021/12/14 06:55:44;;;;;;;;;;;;;;;-5.69;100.00;101498.03;5595170;31;34070;-84
2021/12/14 06:58:52;;;;;;;;;;;;;;;-5.63;100.00;101496.28;5594089;31;33938;-83
2021/12/14 07:02:00;;;;;;;;;;;;;;;-5.57;100.00;101499.72;5595036;31;33490;-83
2021/12/14 07:05:04;;;;;;;;;;;;;;;-5.50;100.00;101501.37;5595469;31;33520;-83
2021/12/14 07:08:09;;;;;;;;;;;;;;;-5.48;100.00;101504.81;5596348;31;33492;-84
2021/12/14 07:11:17;;;;;;;;;;;;;;;-5.40;100.00;101497.87;5595509;31;33851;-84
2021/12/14 07:14:28;;;;;;;;;;;;;;;-5.23;100.00;101499.47;5594665;31;33648;-83
2021/12/14 07:17:42;;;;;;;;;;;;;;;-5.20;100.00;101500.34;5595447;31;33917;-83
2021/12/14 07:20:49;;;;;;;;;;;;;;;-5.04;100.00;101495.91;5594825;31;34243;-83
2021/12/14 07:23:51;;;;;;;;;;;;;;;-4.90;100.00;101505.28;5594765;31;33263;-83
2021/12/14 07:27:29;;;;;;;;;;;;;;;-4.89;100.00;101509.53;5594537;31;33684;-83
2021/12/14 07:30:44;;;;;;;;;;;;;;;-4.86;100.00;101509.53;5517362;32;34245;-83
2021/12/14 07:33:48;;;;;;;;;;;;;;;-5.13;100.00;101516.62;5518809;32;33820;-84
2021/12/14 07:36:51;;;;;;;;;;;;;;;-5.15;100.00;101518.37;5518702;32;33973;-83
2021/12/14 07:39:54;;;;;;;;;;;;;;;-5.14;100.00;101518.34;5518579;32;33235;-83
2021/12/14 07:43:18;;;;;;;;;;;;;;;-4.92;100.00;101525.06;5516848;32;33420;-83
2021/12/14 07:46:24;;;;;;;;;;;;;;;-4.70;100.00;101530.91;5517498;32;32989;-84
2021/12/14 07:49:30;;;;;;;;;;;;;;;-4.40;100.00;101514.25;5517091;32;33414;-84
2021/12/14 07:52:35;;;;;;;;;;;;;;;-4.32;100.00;101510.72;5516453;32;33253;-83
2021/12/14 07:55:39;;;;;;;;;;;;;;;-4.28;100.00;101512.44;5517861;32;33639;-83
2021/12/14 07:58:48;;;;;;;;;;;;;;;-4.20;100.00;101515.78;5518661;32;33803;-84
2021/12/14 08:02:12;;;;;;;;;;;;;;;-3.98;100.00;101505.19;5517548;32;34419;-83
2021/12/14 08:05:17;;;;;;;;;;;;;;;-3.88;100.00;101512.81;5573077;31;33958;-83
2021/12/14 08:08:42;;;;;;;;;;;;;;;-3.76;100.00;101506.62;5596791;31;33801;-83
2021/12/14 08:11:47;;;;;;;;;;;;;;;-3.68;100.00;101513.47;5597083;31;33422;-83
2021/12/14 08:15:00;;;;;;;;;;;;;;;-3.41;100.00;101514.81;5596794;31;34043;-83
2021/12/14 08:18:15;;;;;;;;;;;;;;;-3.27;100.00;101509.41;5597890;31;33753;-83
2021/12/14 08:21:23;;;;;;;;;;;;;;;-3.46;100.00;101509.69;5596586;31;33648;-84
2021/12/14 08:24:29;;;;;;;;;;;;;;;-3.47;100.00;101515.75;5596686;31;34144;-84
2021/12/14 08:27:32;;;;;;;;;;;;;;;-3.18;100.00;101517.03;5595847;31;33907;-83
2021/12/14 08:30:38;;;;;;;;;;;;;;;-3.29;100.00;101511.16;5597087;31;34248;-85
2021/12/14 08:33:41;;;;;;;;;;;;;;;-3.08;100.00;101506.53;5596108;31;33635;-83
2021/12/14 08:36:47;;;;;;;;;;;;;;;-2.88;100.00;101514.00;5582471;31;33550;-82
2021/12/14 08:39:51;;;;;;;;;;;;;;;-2.86;100.00;101515.69;5597390;31;33217;-86
2021/12/14 08:43:03;;;;;;;;;;;;;;;-2.89;100.00;101518.34;5596689;31;33306;-83
2021/12/14 08:46:09;;;;;;;;;;;;;;;-2.75;100.00;101527.59;5599747;31;33787;-83
2021/12/14 08:49:15;;;;;;;;;;;;;;;-2.59;100.00;101530.81;5597653;31;33586;-82
2021/12/14 08:52:20;;;;;;;;;;;;;;;-2.57;100.00;101526.44;5596898;31;33466;-82
2021/12/14 08:55:31;;;;;;;;;;;;;;;-2.51;100.00;101527.19;5596541;31;33920;-82
2021/12/14 08:58:34;;;;;;;;;;;;;;;-2.43;100.00;101526.22;5596268;31;33462;-82
2021/12/14 09:01:40;;;;;;;;;;;;;;;-2.41;100.00;101527.88;5596855;31;33936;-84
2021/12/14 09:04:45;;;;;;;;;;;;;;;-2.64;100.00;101525.69;5596284;31;33498;-83
2021/12/14 09:07:48;;;;;;;;;;;;;;;-2.50;100.00;101523.72;5594373;31;33471;-82
2021/12/14 09:10:51;;;;;;;;;;;;;;;-2.25;100.00;101520.66;5595329;31;33946;-82
2021/12/14 09:13:57;;;;;;;;;;;;;;;-2.51;100.00;101510.78;5594425;31;34326;-82
2021/12/14 09:17:01;;;;;;;;;;;;;;;-2.27;100.00;101504.28;5596394;31;33184;-82
2021/12/14 09:20:14;;;;;;;;;;;;;;;-2.13;100.00;101510.94;5595506;31;33988;-82
2021/12/14 09:23:19;;;;;;;;;;;;;;;-2.20;100.00;101511.09;5595899;31;34190;-82
2021/12/14 09:26:23;;;;;;;;;;;;;;;-2.41;100.00;101512.31;5596461;31;33952;-83
2021/12/14 09:29:27;;;;;;;;;;;;;;;-2.14;100.00;101519.59;5597453;31;34022;-83
2021/12/14 09:32:33;;;;;;;;;;;;;;;-2.13;100.00;101516.13;5596586;31;33920;-83
2021/12/14 09:35:36;;;;;;;;;;;;;;;-2.20;100.00;101516.25;5595865;31;34358;-83
2021/12/14 09:38:40;;;;;;;;;;;;;;;-2.52;100.00;101509.91;5596051;31;33406;-83
2021/12/14 09:41:44;;;;;;;;;;;;;;;-2.38;100.00;101508.81;5595231;31;33230;-82
2021/12/14 09:44:48;;;;;;;;;;;;;;;-2.65;100.00;101508.44;5596869;31;34106;-82
2021/12/14 09:47:53;;;;;;;;;;;;;;;-2.64;100.00;101502.34;5596706;31;34024;-83
2021/12/14 09:51:03;;;;;;;;;;;;;;;-2.61;100.00;101493.69;5595569;31;34392;-83
2021/12/14 09:54:12;;;;;;;;;;;;;;;-2.49;100.00;101494.31;5596588;31;33501;-83
2021/12/14 09:57:20;;;;;;;;;;;;;;;-2.59;100.00;101489.34;5595689;31;33969;-83
2021/12/14 10:00:27;;;;;;;;;;;;;;;-2.66;100.00;101488.59;5595280;31;34760;-82
2021/12/14 10:03:30;;;;;;;;;;;;;;;-2.73;100.00;101484.37;5596570;31;33733;-83
2021/12/14 10:06:34;;;;;;;;;;;;;;;-2.90;100.00;101480.38;5598423;31;33693;-83
2021/12/14 10:09:42;;;;;;;;;;;;;;;-2.82;100.00;101475.91;5599642;31;33716;-83
2021/12/14 10:12:53;;;;;;;;;;;;;;;-2.83;100.00;101478.53;5597707;31;33844;-83
2021/12/14 10:15:57;;;;;;;;;;;;;;;-2.65;100.00;101487.72;5596702;31;33044;-83
2021/12/14 10:19:02;;;;;;;;;;;;;;;-2.55;100.00;101478.91;5594605;31;34298;-83
2021/12/14 10:22:10;;;;;;;;;;;;;;;-2.76;100.00;101476.69;5595440;31;33718;-83
2021/12/14 10:25:15;;;;;;;;;;;;;;;-2.69;100.00;101476.53;5595914;31;33461;-83
2021/12/14 10:28:19;;;;;;;;;;;;;;;-2.72;100.00;101466.25;5596665;31;33717;-83
2021/12/14 10:31:36;;;;;;;;;;;;;;;-2.58;100.00;101467.72;5595670;31;33279;-83
2021/12/14 10:34:41;;;;;;;;;;;;;;;-2.50;100.00;101466.69;5595404;31;34744;-83
2021/12/14 10:44:23;;;;;;;;;;;;;;;-2.44;100.00;101467.47;5595127;31;34044;-83
2021/12/14 10:47:27;;;;;;;;;;;;;;;-2.55;100.00;101468.53;5596081;31;33533;-84
2021/12/14 10:50:36;;;;;;;;;;;;;;;-2.47;100.00;101475.28;5595566;31;33604;-88
2021/12/14 10:53:42;;;;;;;;;;;;;;;-2.43;100.00;101461.41;5596478;31;33751;-83
2021/12/14 10:57:09;;;;;;;;;;;;;;;-2.27;100.00;101461.97;5595592;31;34586;-83
2021/12/14 11:00:17;;;;;;;;;;;;;;;-2.13;100.00;101453.91;5596216;31;33526;-83
2021/12/14 11:03:22;;;;;;;;;;;;;;;-1.97;100.00;101455.28;5594824;31;34235;-83
2021/12/14 11:06:29;;;;;;;;;;;;;;;-1.92;100.00;101453.44;5580978;31;33435;-83
2021/12/14 11:09:42;;;;;;;;;;;;;;;-1.91;100.00;101444.78;5596205;31;34128;-83
2021/12/14 11:12:48;;;;;;;;;;;;;;;-1.79;100.00;101461.81;5595304;31;34022;-84
2021/12/14 11:15:56;;;;;;;;;;;;;;;-1.75;100.00;101460.03;5596197;31;33592;-84
2021/12/14 11:19:01;;;;;;;;;;;;;;;-1.67;100.00;101442.53;5597200;31;33741;-84
2021/12/14 11:22:06;;;;;;;;;;;;;;;-1.47;100.00;101449.88;5596435;31;34493;-83
2021/12/14 11:25:13;;;;;;;;;;;;;;;-1.21;100.00;101439.75;5595193;31;34151;-83
2021/12/14 11:28:23;;;;;;;;;;;;;;;-1.14;100.00;101446.50;5595993;31;33143;-83
2021/12/14 11:31:27;;;;;;;;;;;;;;;-1.12;100.00;101444.72;5594523;31;33497;-84
2021/12/14 11:34:35;;;;;;;;;;;;;;;-1.11;100.00;101446.44;5594222;31;34069;-83
2021/12/14 11:37:41;;;;;;;;;;;;;;;-1.14;100.00;101438.69;5596927;31;34861;-83
2021/12/14 11:40:47;;;;;;;;;;;;;;;-1.21;100.00;101439.75;5594864;31;34339;-84
2021/12/14 11:43:51;;;;;;;;;;;;;;;-1.27;100.00;101436.41;5593933;31;34268;-83
2021/12/14 11:47:00;;;;;;;;;;;;;;;-1.27;100.00;101436.41;5595102;31;34174;-84
2021/12/14 11:50:06;;;;;;;;;;;;;;;-1.19;100.00;101443.19;5595547;31;34391;-84
2021/12/14 11:53:17;;;;;;;;;;;;;;;-1.21;100.00;101437.16;5593538;31;33257;-83
2021/12/14 11:56:24;;;;;;;;;;;;;;;-1.19;100.00;101433.63;5594178;31;34103;-83
2021/12/14 11:59:27;;;;;;;;;;;;;;;-1.15;100.00;101432.66;5594557;31;33851;-83
2021/12/14 12:02:33;;;;;;;;;;;;;;;-1.04;100.00;101427.19;5594258;31;34203;-83
2021/12/14 12:05:57;;;;;;;;;;;;;;;-0.89;100.00;101425.94;5593315;31;33304;-83
2021/12/14 12:12:33;;;;;;;;;;;;;;;-0.64;100.00;101423.56;5594526;31;33947;-83
2021/12/14 12:15:41;;;;;;;;;;;;;;;-0.59;100.00;101427.75;5595513;31;34210;-83
2021/12/14 12:19:01;;;;;;;;;;;;;;;-0.53;100.00;101422.41;5597452;31;33887;-83
2021/12/14 12:22:06;;;;;;;;;;;;;;;-0.46;100.00;101423.94;5597477;31;34116;-83
2021/12/14 12:25:10;;;;;;;;;;;;;;;-0.36;100.00;101422.78;5597333;31;34419;-83
2021/12/14 12:28:16;;;;;;;;;;;;;;;-0.30;100.00;101423.53;5596037;31;33986;-83
2021/12/14 12:31:20;;;;;;;;;;;;;;;-0.25;100.00;101414.69;5596734;31;33547;-83
2021/12/14 12:34:32;;;;;;;;;;;;;;;-0.15;100.00;101410.06;5596142;31;33614;-82
2021/12/14 12:37:40;;;;;;;;;;;;;;;-0.09;100.00;101409.87;5596858;31;32885;-82
2021/12/14 12:40:49;;;;;;;;;;;;;;;-0.06;100.00;101409.81;5596437;31;33659;-82
2021/12/14 12:43:54;;;;;;;;;;;;;;;0.03;100.00;101410.41;5597966;31;33439;-83
2021/12/14 12:47:03;;;;;;;;;;;;;;;0.01;100.00;101412.22;5601858;31;34148;-82
2021/12/14 12:50:06;;;;;;;;;;;;;;;-0.02;100.00;101419.22;5596339;31;33367;-82
2021/12/14 12:53:21;;;;;;;;;;;;;;;-0.01;100.00;101423.50;5595904;31;33920;-82
2021/12/14 12:56:26;;;;;;;;;;;;;;;-0.01;100.00;101414.88;5595488;31;33763;-83
2021/12/14 12:59:41;;;;;;;;;;;;;;;-0.01;100.00;101415.72;5597241;31;34303;-83
2021/12/14 13:02:46;;;;;;;;;;;;;;;0.04;100.00;101406.91;5597200;31;34607;-82
2021/12/14 13:05:53;;;;;;;;;;;;;;;0.04;100.00;101396.53;5597034;31;33793;-82
2021/12/14 13:08:58;;;;;;;;;;;;;;;0.05;100.00;101396.47;5597180;31;33958;-83
2021/12/14 13:12:00;;;;;;;;;;;;;;;0.12;100.00;101394.53;5596203;31;33440;-82
2021/12/14 13:15:03;;;;;;;;;;;;;;;0.17;100.00;101396.97;5595922;31;34104;-82
2021/12/14 13:18:14;;;;;;;;;;;;;;;0.17;100.00;101416.03;5597384;31;33261;-82
2021/12/14 13:21:17;;;;;;;;;;;;;;;0.17;100.00;101402.19;5601504;31;33472;-82
2021/12/14 13:24:23;;;;;;;;;;;;;;;0.13;100.00;101406.63;5597339;31;33164;-82
2021/12/14 13:27:31;;;;;;;;;;;;;;;0.11;100.00;101409.28;5595278;31;34575;-82
2021/12/14 13:30:34;;;;;;;;;;;;;;;0.09;100.00;101405.00;5597001;31;33668;-82
2021/12/14 13:33:37;;;;;;;;;;;;;;;0.08;100.00;101403.31;5596432;31;33986;-82
2021/12/14 13:36:40;;;;;;;;;;;;;;;0.05;100.00;101406.03;5596516;31;33391;-82
2021/12/14 13:39:45;;;;;;;;;;;;;;;0.01;100.00;101414.81;5595238;31;33192;-82
2021/12/14 13:43:09;;;;;;;;;;;;;;;-0.05;100.00;101408.88;5596831;31;34151;-82
2021/12/14 13:46:12;;;;;;;;;;;;;;;-0.05;100.00;101414.09;5595327;31;33668;-82
2021/12/14 13:49:14;;;;;;;;;;;;;;;-0.02;100.00;101414.00;5594694;31;33681;-82
2021/12/14 13:52:18;;;;;;;;;;;;;;;-0.05;100.00;101415.84;5595737;31;33609;-82
2021/12/14 13:55:25;;;;;;;;;;;;;;;-0.07;100.00;101410.69;5595631;31;34266;-82
2021/12/14 13:58:34;;;;;;;;;;;;;;;-0.10;100.00;101410.78;5595250;31;33361;-82
2021/12/14 14:01:41;;;;;;;;;;;;;;;-0.14;100.00;101418.72;5593071;31;34025;-82
2021/12/14 14:04:46;;;;;;;;;;;;;;;-0.16;100.00;101416.16;5594993;31;33546;-82
2021/12/14 14:07:50;;;;;;;;;;;;;;;-0.21;100.00;101412.84;5595395;31;33718;-82
2021/12/14 14:10:53;;;;;;;;;;;;;;;-0.33;100.00;101409.69;5596661;31;33772;-82
2021/12/14 14:14:03;;;;;;;;;;;;;;;-0.44;100.00;101410.88;5596713;31;33586;-83
2021/12/14 14:17:07;;;;;;;;;;;;;;;-0.52;100.00;101411.97;5602357;31;34052;-82
2021/12/14 14:20:14;;;;;;;;;;;;;;;-0.59;100.00;101414.78;5602500;31;34152;-82
2021/12/14 14:23:25;;;;;;;;;;;;;;;-0.67;100.00;101405.44;5601018;31;33562;-82
2021/12/14 14:26:28;;;;;;;;;;;;;;;-0.75;100.00;101401.34;5601747;31;34741;-82
2021/12/14 14:29:41;;;;;;;;;;;;;;;-0.84;100.00;101411.09;5599934;31;33713;-83
2021/12/14 14:32:57;;;;;;;;;;;;;;;-0.89;100.00;101409.50;5595896;31;33594;-82
2021/12/14 14:36:06;;;;;;;;;;;;;;;-0.93;100.00;101399.19;5594686;31;33621;-82
2021/12/14 14:39:17;;;;;;;;;;;;;;;-1.05;100.00;101415.09;5596951;31;33664;-82
2021/12/14 14:42:25;;;;;;;;;;;;;;;-1.14;100.00;101415.31;5595647;31;33920;-82
2021/12/14 14:45:28;;;;;;;;;;;;;;;-1.13;100.00;101422.22;5595009;31;34404;-82
2021/12/14 14:48:34;;;;;;;;;;;;;;;-1.25;100.00;101421.66;5596814;31;33529;-82
2021/12/14 14:52:01;;;;;;;;;;;;;;;-1.38;100.00;101432.38;5595541;31;33908;-82
2021/12/14 14:55:08;;;;;;;;;;;;;;;-1.32;100.00;101432.22;5595909;31;33312;-82
2021/12/14 14:58:29;;;;;;;;;;;;;;;-1.20;100.00;101436.28;5595911;31;33477;-82
2021/12/14 15:01:32;;;;;;;;;;;;;;;-1.37;100.00;101441.88;5594268;31;33695;-82
2021/12/14 15:04:53;;;;;;;;;;;;;;;-1.33;100.00;101446.94;5595430;31;34187;-82
2021/12/14 15:07:56;;;;;;;;;;;;;;;-1.54;100.00;101437.91;5595752;31;33682;-82
2021/12/14 15:11:15;;;;;;;;;;;;;;;-1.66;100.00;101446.84;5596506;31;33555;-82
2021/12/14 15:14:28;;;;;;;;;;;;;;;-1.75;100.00;101450.50;5594442;31;33774;-82
2021/12/14 15:17:43;;;;;;;;;;;;;;;-1.83;100.00;101441.16;5593339;31;33086;-82
2021/12/14 15:20:47;;;;;;;;;;;;;;;-1.92;100.00;101453.44;5594625;31;33864;-82
2021/12/14 15:23:49;;;;;;;;;;;;;;;-1.95;100.00;101452.66;5595680;31;33599;-82
2021/12/14 15:27:15;;;;;;;;;;;;;;;-2.03;100.00;101450.22;5598438;31;34159;-82
2021/12/14 15:30:29;;;;;;;;;;;;;;;-2.02;100.00;101451.94;5589045;31;33419;-82
2021/12/14 15:33:38;;;;;;;;;;;;;;;-2.12;100.00;101440.87;5594179;31;33703;-82
2021/12/14 15:36:43;;;;;;;;;;;;;;;-2.23;100.00;101448.91;5593652;31;34568;-82
2021/12/14 15:39:46;;;;;;;;;;;;;;;-2.24;100.00;101452.38;5592543;31;33200;-82
2021/12/14 15:43:07;;;;;;;;;;;;;;;-2.23;100.00;101459.28;5594884;31;33748;-82
2021/12/14 15:46:22;;;;;;;;;;;;;;;-2.30;100.00;101467.19;5594027;31;33538;-83
2021/12/14 15:49:33;;;;;;;;;;;;;;;-2.38;100.00;101464.75;5594802;31;33817;-82
2021/12/14 15:52:38;;;;;;;;;;;;;;;-2.42;100.00;101458.78;5596441;31;33652;-82
2021/12/14 15:55:41;;;;;;;;;;;;;;;-2.46;100.00;101458.88;5597394;31;33603;-83
2021/12/14 15:58:48;;;;;;;;;;;;;;;-2.46;100.00;101453.69;5596448;31;33237;-82
2021/12/14 16:01:56;;;;;;;;;;;;;;;-2.51;100.00;101446.84;5597153;31;33956;-82
2021/12/14 16:05:05;;;;;;;;;;;;;;;-2.43;100.00;101451.03;5596925;31;34156;-82
2021/12/14 16:08:07;;;;;;;;;;;;;;;-2.49;100.00;101442.50;5595640;31;33892;-82
2021/12/14 16:17:49;;;;;;;;;;;;;;;-2.60;100.00;101444.44;5596283;31;34275;-82
2021/12/14 16:21:00;;;;;;;;;;;;;;;-2.59;100.00;101461.69;5596951;31;34233;-83
2021/12/14 16:24:06;;;;;;;;;;;;;;;-2.67;100.00;101458.38;5596719;31;33637;-83
2021/12/14 16:27:08;;;;;;;;;;;;;;;-2.55;100.00;101454.69;5596836;31;33558;-82